Time;durP1;ratioP1;P1;durP2;ratioP2;P2;SDS_P1;SDS_P2;PMS_P1;PMS_P2;Temp;Humidity;BMP_temperature;BMP_pressure;BME280_temperature;BME280_humidity;BME280_pressure;Samples;Min_cycle;Max_cycle;Signal;HPM_P1;HPM_P2
2023/01/20 00:01:28;;;;;;;61.13;25.15;;;;;;;;;;4922857;29;20134;-73
2023/01/20 00:03:55;;;;;;;56.17;25.23;;;;;;;;;;4938347;29;20129;-75
2023/01/20 00:06:21;;;;;;;60.50;26.60;;;;;;;;;;4906887;29;20137;-74
2023/01/20 00:08:50;;;;;;;55.30;24.75;;;;;;;;;;4922583;29;20486;-73
2023/01/20 00:11:16;;;;;;;56.38;26.17;;;;;;;;;;4891376;29;20051;-72
2023/01/20 00:13:42;;;;;;;58.10;26.48;;;;;;;;;;4906795;29;20043;-74
2023/01/20 00:16:09;;;;;;;54.63;24.92;;;;;;;;;;4922460;29;20035;-75
2023/01/20 00:18:34;;;;;;;57.60;24.77;;;;;;;;;;4906640;29;20039;-76
2023/01/20 00:21:01;;;;;;;53.72;24.33;;;;;;;;;;4938083;29;20058;-77
2023/01/20 00:23:28;;;;;;;56.05;25.02;;;;;;;;;;4922524;29;20385;-77
2023/01/20 00:25:53;;;;;;;55.15;23.70;;;;;;;;;;4937895;29;20039;-76
2023/01/20 00:28:19;;;;;;;58.92;26.40;;;;;;;;;;4903194;29;20086;-77
2023/01/20 00:30:44;;;;;;;47.72;23.30;;;;;;;;;;4914217;29;20054;-75
2023/01/20 00:33:10;;;;;;;53.13;24.63;;;;;;;;;;4921216;29;20054;-77
2023/01/20 00:35:37;;;;;;;51.15;23.25;;;;;;;;;;4954329;29;20097;-77
2023/01/20 00:38:02;;;;;;;49.80;22.48;;;;;;;;;;4937754;29;20042;-78
2023/01/20 00:40:28;;;;;;;47.05;21.33;;;;;;;;;;4904344;29;20043;-77
2023/01/20 00:42:53;;;;;;;43.15;21.55;;;;;;;;;;4919086;29;20039;-78
2023/01/20 00:45:19;;;;;;;44.92;21.27;;;;;;;;;;4926509;29;20407;-78
2023/01/20 00:47:45;;;;;;;48.95;22.83;;;;;;;;;;4905483;29;20442;-78
2023/01/20 00:50:10;;;;;;;46.05;21.67;;;;;;;;;;4903303;29;20054;-78
2023/01/20 00:52:36;;;;;;;41.05;20.92;;;;;;;;;;4933660;29;20036;-80
2023/01/20 00:55:02;;;;;;;47.67;20.80;;;;;;;;;;4916193;29;20035;-80
2023/01/20 00:57:29;;;;;;;44.58;20.45;;;;;;;;;;4906204;28;20054;-79
2023/01/20 00:59:54;;;;;;;45.92;21.65;;;;;;;;;;4937033;29;20058;-77
2023/01/20 01:02:21;;;;;;;43.97;21.45;;;;;;;;;;4955551;28;20445;-79
2023/01/20 01:04:50;;;;;;;45.05;21.65;;;;;;;;;;4940259;28;20045;-79
2023/01/20 01:07:16;;;;;;;44.08;21.75;;;;;;;;;;4924894;28;20035;-79
2023/01/20 01:09:42;;;;;;;48.20;22.48;;;;;;;;;;4940349;28;20069;-81
2023/01/20 01:12:08;;;;;;;48.47;22.13;;;;;;;;;;4923179;28;20038;-80
2023/01/20 01:14:34;;;;;;;49.97;21.25;;;;;;;;;;4940483;28;20137;-79
2023/01/20 01:16:59;;;;;;;46.58;21.38;;;;;;;;;;4923693;28;20126;-80
2023/01/20 01:19:25;;;;;;;48.33;22.13;;;;;;;;;;4940300;28;20097;-80
2023/01/20 01:21:50;;;;;;;47.38;23.02;;;;;;;;;;4939803;28;20047;-79
2023/01/20 01:24:17;;;;;;;42.17;22.65;;;;;;;;;;4973617;28;20125;-80
2023/01/20 01:26:42;;;;;;;47.08;21.98;;;;;;;;;;4924551;28;20129;-80
2023/01/20 01:29:08;;;;;;;41.80;20.65;;;;;;;;;;4956381;28;20035;-80
2023/01/20 01:31:33;;;;;;;42.58;21.77;;;;;;;;;;4924285;28;20465;-79
2023/01/20 01:33:59;;;;;;;46.90;21.88;;;;;;;;;;4940328;28;20045;-78
2023/01/20 01:36:25;;;;;;;46.28;21.35;;;;;;;;;;4940545;28;20117;-78
2023/01/20 01:38:50;;;;;;;45.50;21.75;;;;;;;;;;4924578;28;20072;-77
2023/01/20 01:41:16;;;;;;;43.72;21.27;;;;;;;;;;4940395;28;20039;-78
2023/01/20 01:44:01;;;;;;;50.75;23.08;;;;;;;;;;4940111;28;20034;-78
2023/01/20 01:46:27;;;;;;;46.40;22.27;;;;;;;;;;4923718;28;20078;-79
2023/01/20 01:48:55;;;;;;;48.92;22.15;;;;;;;;;;4956545;28;20042;-78
2023/01/20 01:51:27;;;;;;;43.38;19.77;;;;;;;;;;4940166;28;20487;-75
2023/01/20 01:53:52;;;;;;;;;;;;;;;;;;4940404;28;20035;-76
2023/01/20 01:56:19;;;;;;;46.60;20.67;;;;;;;;;;4940371;28;19972;-77
2023/01/20 01:58:47;;;;;;;49.72;22.20;;;;;;;;;;4956143;28;20070;-78
2023/01/20 02:01:13;;;;;;;48.38;20.42;;;;;;;;;;4939865;28;20046;-78
2023/01/20 02:03:46;;;;;;;48.55;23.27;;;;;;;;;;4939876;28;20034;-79
2023/01/20 02:06:13;;;;;;;50.42;20.88;;;;;;;;;;4939690;28;20923;-78
2023/01/20 02:08:38;;;;;;;43.85;20.83;;;;;;;;;;4972878;28;20042;-77
2023/01/20 02:11:04;;;;;;;42.83;20.15;;;;;;;;;;4927583;28;20134;-78
2023/01/20 02:13:32;;;;;;;41.97;20.08;;;;;;;;;;4960002;28;20070;-77
2023/01/20 02:16:24;;;;;;;43.33;19.77;;;;;;;;;;4928380;28;20039;-78
2023/01/20 02:19:08;;;;;;;44.35;20.67;;;;;;;;;;4940031;28;20043;-77
2023/01/20 02:21:52;;;;;;;45.38;19.75;;;;;;;;;;4927904;28;20117;-78
2023/01/20 02:24:20;;;;;;;42.03;20.38;;;;;;;;;;4927565;28;20039;-78
2023/01/20 02:26:53;;;;;;;44.00;20.75;;;;;;;;;;4959191;28;20417;-77
2023/01/20 02:29:45;;;;;;;44.42;19.05;;;;;;;;;;4959836;28;20043;-76
2023/01/20 02:32:15;;;;;;;45.97;20.50;;;;;;;;;;4915702;28;20035;-77
2023/01/20 02:34:57;;;;;;;46.72;20.02;;;;;;;;;;4927418;28;20532;-77
2023/01/20 02:37:27;;;;;;;43.50;20.00;;;;;;;;;;4927992;28;20042;-77
2023/01/20 02:39:59;;;;;;;42.17;18.23;;;;;;;;;;4927559;28;20061;-77
2023/01/20 02:42:29;;;;;;;41.92;19.08;;;;;;;;;;4927348;28;20141;-74
2023/01/20 02:44:57;;;;;;;41.42;19.65;;;;;;;;;;4943018;28;20058;-75
2023/01/20 02:47:37;;;;;;;42.08;19.38;;;;;;;;;;4927454;28;20108;-77
2023/01/20 02:50:07;;;;;;;40.55;19.45;;;;;;;;;;4928737;28;20039;-76
2023/01/20 02:52:38;;;;;;;44.22;19.58;;;;;;;;;;4927867;28;20034;-77
2023/01/20 02:55:08;;;;;;;42.33;19.58;;;;;;;;;;4959076;28;20039;-77
2023/01/20 02:57:40;;;;;;;44.53;18.60;;;;;;;;;;4922748;28;20070;-77
2023/01/20 03:00:16;;;;;;;44.03;19.48;;;;;;;;;;4942564;28;20046;-75
2023/01/20 03:02:43;;;;;;;39.22;18.40;;;;;;;;;;4958538;28;20050;-75
2023/01/20 03:05:11;;;;;;;38.08;17.75;;;;;;;;;;4926696;28;20051;-77
2023/01/20 03:07:39;;;;;;;41.25;17.60;;;;;;;;;;4958643;28;20116;-75
2023/01/20 03:10:06;;;;;;;45.08;18.25;;;;;;;;;;4941785;28;20034;-77
2023/01/20 03:12:38;;;;;;;41.72;17.70;;;;;;;;;;4925724;28;20097;-76
2023/01/20 03:15:03;;;;;;;42.80;18.02;;;;;;;;;;4941532;28;20050;-78
2023/01/20 03:17:31;;;;;;;42.33;18.60;;;;;;;;;;4925698;28;20137;-78
2023/01/20 03:19:56;;;;;;;38.35;17.83;;;;;;;;;;4925536;28;20433;-75
2023/01/20 03:22:22;;;;;;;36.47;17.30;;;;;;;;;;4943666;28;20030;-79
2023/01/20 03:24:48;;;;;;;44.65;18.20;;;;;;;;;;4927590;28;20030;-78
2023/01/20 03:27:13;;;;;;;42.72;18.17;;;;;;;;;;4928839;28;20102;-78
2023/01/20 03:29:39;;;;;;;38.88;18.00;;;;;;;;;;4930395;28;20047;-74
2023/01/20 03:32:07;;;;;;;41.85;18.05;;;;;;;;;;4944649;28;20035;-77
2023/01/20 03:34:34;;;;;;;42.50;18.42;;;;;;;;;;4933735;28;20042;-75
2023/01/20 03:37:00;;;;;;;45.60;16.83;;;;;;;;;;4951377;28;20045;-76
2023/01/20 03:39:27;;;;;;;39.45;17.88;;;;;;;;;;4960457;28;20433;-76
2023/01/20 03:42:13;;;;;;;45.15;20.92;;;;;;;;;;4942084;28;20046;-77
2023/01/20 03:44:42;;;;;;;39.55;17.58;;;;;;;;;;4942099;28;20465;-76
2023/01/20 03:47:11;;;;;;;44.08;18.08;;;;;;;;;;4942202;28;20042;-77
2023/01/20 03:49:42;;;;;;;42.00;17.65;;;;;;;;;;4957952;28;20036;-77
2023/01/20 03:52:16;;;;;;;38.63;17.85;;;;;;;;;;4925720;28;20039;-77
2023/01/20 03:54:48;;;;;;;38.85;17.45;;;;;;;;;;4941846;28;20195;-77
2023/01/20 03:57:17;;;;;;;47.25;18.50;;;;;;;;;;4941907;28;20043;-78
2023/01/20 03:59:43;;;;;;;39.70;17.95;;;;;;;;;;4974525;28;20141;-79
2023/01/20 04:02:09;;;;;;;37.30;17.42;;;;;;;;;;4925714;28;20134;-79
2023/01/20 04:04:37;;;;;;;39.10;18.13;;;;;;;;;;4974279;28;20051;-78
2023/01/20 04:07:04;;;;;;;40.80;18.05;;;;;;;;;;4941282;28;20497;-77
2023/01/20 04:09:32;;;;;;;40.85;17.52;;;;;;;;;;4974588;28;20118;-78
2023/01/20 04:11:57;;;;;;;38.53;15.88;;;;;;;;;;4954528;29;20042;-78
2023/01/20 04:14:23;;;;;;;41.88;18.05;;;;;;;;;;4941303;28;20042;-79
2023/01/20 04:16:53;;;;;;;40.63;17.58;;;;;;;;;;4941224;28;20038;-80
2023/01/20 04:19:19;;;;;;;37.65;16.73;;;;;;;;;;4941314;28;20065;-79
2023/01/20 04:21:48;;;;;;;40.78;17.15;;;;;;;;;;4914184;29;20458;-77
2023/01/20 04:24:49;;;;;;;37.78;16.85;;;;;;;;;;4940773;28;20034;-75
2023/01/20 04:27:15;;;;;;;38.63;16.45;;;;;;;;;;4886459;29;20090;-74
2023/01/20 04:29:42;;;;;;;41.97;18.92;;;;;;;;;;4951912;28;20050;-75
2023/01/20 04:32:09;;;;;;;35.88;17.40;;;;;;;;;;4940910;28;20039;-74
2023/01/20 04:34:35;;;;;;;40.85;17.77;;;;;;;;;;4940573;28;20397;-76
2023/01/20 04:37:00;;;;;;;37.50;16.75;;;;;;;;;;4924816;28;20043;-76
2023/01/20 04:39:26;;;;;;;40.60;16.88;;;;;;;;;;4939428;28;20065;-78
2023/01/20 04:41:52;;;;;;;40.75;16.88;;;;;;;;;;4925217;28;20104;-79
2023/01/20 04:44:17;;;;;;;36.20;16.75;;;;;;;;;;4940604;28;20050;-79
2023/01/20 04:46:44;;;;;;;41.70;17.77;;;;;;;;;;4940581;28;20072;-79
2023/01/20 04:49:12;;;;;;;40.15;16.75;;;;;;;;;;4973978;28;20043;-79
2023/01/20 04:51:39;;;;;;;36.95;16.92;;;;;;;;;;4978560;28;20081;-78
2023/01/20 04:54:04;;;;;;;37.83;17.15;;;;;;;;;;4942431;28;20043;-78
2023/01/20 04:56:30;;;;;;;42.85;17.13;;;;;;;;;;4940933;28;20552;-79
2023/01/20 04:58:55;;;;;;;39.28;17.00;;;;;;;;;;4924852;28;20081;-78
2023/01/20 05:01:22;;;;;;;39.67;17.63;;;;;;;;;;4941312;28;20061;-79
2023/01/20 05:03:47;;;;;;;37.38;17.20;;;;;;;;;;4941579;28;20437;-78
2023/01/20 05:06:13;;;;;;;37.28;16.33;;;;;;;;;;4941711;28;20054;-80
2023/01/20 05:08:39;;;;;;;43.20;17.27;;;;;;;;;;4958190;28;20047;-79
2023/01/20 05:11:04;;;;;;;45.38;17.73;;;;;;;;;;4956700;28;20070;-78
2023/01/20 05:13:30;;;;;;;39.40;17.20;;;;;;;;;;4952246;28;20073;-78
2023/01/20 05:15:56;;;;;;;39.75;16.60;;;;;;;;;;4940187;28;20034;-78
2023/01/20 05:18:22;;;;;;;36.42;16.65;;;;;;;;;;4937492;28;20198;-79
2023/01/20 05:20:48;;;;;;;40.50;16.90;;;;;;;;;;4939926;28;20524;-78
2023/01/20 05:23:14;;;;;;;37.10;16.75;;;;;;;;;;4940035;28;20045;-79
2023/01/20 05:25:40;;;;;;;38.92;17.63;;;;;;;;;;4940235;28;20051;-78
2023/01/20 05:28:08;;;;;;;39.20;17.05;;;;;;;;;;4939956;28;20050;-78
2023/01/20 05:30:33;;;;;;;37.47;16.45;;;;;;;;;;4956247;28;20045;-77
2023/01/20 05:33:01;;;;;;;41.90;17.38;;;;;;;;;;4940179;28;20039;-78
2023/01/20 05:35:26;;;;;;;41.55;17.67;;;;;;;;;;4940109;28;20046;-77
2023/01/20 05:37:53;;;;;;;38.05;18.25;;;;;;;;;;4939880;28;20039;-78
2023/01/20 05:40:19;;;;;;;41.40;16.48;;;;;;;;;;4956087;28;20278;-79
2023/01/20 05:42:44;;;;;;;41.85;17.05;;;;;;;;;;4939830;28;20499;-79
2023/01/20 05:45:10;;;;;;;42.47;20.40;;;;;;;;;;4939279;28;20078;-80
2023/01/20 05:47:36;;;;;;;36.47;16.80;;;;;;;;;;4939884;28;20034;-78
2023/01/20 05:50:02;;;;;;;42.53;17.77;;;;;;;;;;4924406;28;20039;-79
2023/01/20 05:52:29;;;;;;;42.72;17.17;;;;;;;;;;4940180;28;20042;-80
2023/01/20 05:54:55;;;;;;;39.63;17.30;;;;;;;;;;4940327;28;20120;-80
2023/01/20 05:57:25;;;;;;;43.38;18.20;;;;;;;;;;4956349;28;20389;-80
2023/01/20 05:59:56;;;;;;;39.95;17.45;;;;;;;;;;4955995;28;20157;-78
2023/01/20 06:02:21;;;;;;;38.08;16.83;;;;;;;;;;4955987;28;20047;-78
2023/01/20 06:04:47;;;;;;;37.15;17.27;;;;;;;;;;4939562;28;20045;-74
2023/01/20 06:07:14;;;;;;;40.50;17.77;;;;;;;;;;4924186;28;20065;-70
2023/01/20 06:09:40;;;;;;;41.25;17.50;;;;;;;;;;4932945;28;20480;-70
2023/01/20 06:12:07;;;;;;;40.40;17.00;;;;;;;;;;4922215;28;20043;-69
2023/01/20 06:14:34;;;;;;;47.30;18.45;;;;;;;;;;4922443;28;20092;-70
2023/01/20 06:16:59;;;;;;;37.90;17.30;;;;;;;;;;4922110;28;20034;-71
2023/01/20 06:19:25;;;;;;;41.97;17.25;;;;;;;;;;4922842;28;20054;-70
2023/01/20 06:21:52;;;;;;;39.42;17.80;;;;;;;;;;4938478;28;20086;-70
2023/01/20 06:24:19;;;;;;;39.85;17.73;;;;;;;;;;4922421;28;20038;-71
2023/01/20 06:26:44;;;;;;;41.90;17.63;;;;;;;;;;4922607;28;20192;-72
2023/01/20 06:29:10;;;;;;;42.28;18.52;;;;;;;;;;4922445;28;20034;-72
2023/01/20 06:31:36;;;;;;;40.13;17.48;;;;;;;;;;4922915;28;20038;-70
2023/01/20 06:34:02;;;;;;;50.00;18.45;;;;;;;;;;4938845;28;20531;-72
2023/01/20 06:36:28;;;;;;;43.67;18.55;;;;;;;;;;4922901;28;20533;-72
2023/01/20 06:38:55;;;;;;;43.63;19.27;;;;;;;;;;4937908;28;20038;-72
2023/01/20 06:41:20;;;;;;;41.15;18.85;;;;;;;;;;4922563;28;20045;-71
2023/01/20 06:43:46;;;;;;;46.92;17.30;;;;;;;;;;4922493;28;20038;-71
2023/01/20 06:46:13;;;;;;;47.08;19.67;;;;;;;;;;4922504;28;20053;-70
2023/01/20 06:48:40;;;;;;;45.33;19.75;;;;;;;;;;4938556;28;20035;-69
2023/01/20 06:51:10;;;;;;;37.20;17.83;;;;;;;;;;4923042;28;20050;-70
2023/01/20 06:53:36;;;;;;;39.80;18.63;;;;;;;;;;4923297;28;20156;-70
2023/01/20 06:56:01;;;;;;;43.42;18.35;;;;;;;;;;4923496;28;20516;-70
2023/01/20 06:58:28;;;;;;;44.33;19.55;;;;;;;;;;4925459;28;20386;-71
2023/01/20 07:01:13;;;;;;;40.92;17.73;;;;;;;;;;4959370;28;20051;-69
2023/01/20 07:03:42;;;;;;;40.15;18.50;;;;;;;;;;4941497;28;20090;-70
2023/01/20 07:06:23;;;;;;;38.72;16.48;;;;;;;;;;4925431;28;20042;-73
2023/01/20 07:08:49;;;;;;;39.90;17.83;;;;;;;;;;4925565;28;20034;-72
2023/01/20 07:11:15;;;;;;;39.28;18.92;;;;;;;;;;4974558;28;20069;-72
2023/01/20 07:13:41;;;;;;;38.97;17.95;;;;;;;;;;4925487;28;20043;-72
2023/01/20 07:16:07;;;;;;;40.40;18.38;;;;;;;;;;4925760;28;20132;-73
2023/01/20 07:18:33;;;;;;;41.20;17.38;;;;;;;;;;4925831;28;20031;-72
2023/01/20 07:20:59;;;;;;;39.30;17.83;;;;;;;;;;4925001;28;20050;-73
2023/01/20 07:23:24;;;;;;;41.13;17.67;;;;;;;;;;4938038;28;20037;-72
2023/01/20 07:26:00;;;;;;;43.97;17.73;;;;;;;;;;4933891;28;20053;-71
2023/01/20 07:28:26;;;;;;;43.10;18.33;;;;;;;;;;4924952;28;20030;-73
2023/01/20 07:30:53;;;;;;;44.25;18.48;;;;;;;;;;4922111;29;20043;-73
2023/01/20 07:33:18;;;;;;;39.05;18.58;;;;;;;;;;4941300;28;20125;-73
2023/01/20 07:35:49;;;;;;;47.58;19.05;;;;;;;;;;4941386;28;20038;-74
2023/01/20 07:38:16;;;;;;;51.65;19.08;;;;;;;;;;4925585;28;20465;-72
2023/01/20 07:40:44;;;;;;;40.78;18.30;;;;;;;;;;4941175;28;20030;-73
2023/01/20 07:43:10;;;;;;;41.67;18.38;;;;;;;;;;4924903;28;20039;-75
2023/01/20 07:45:37;;;;;;;42.60;19.73;;;;;;;;;;4940768;28;20113;-70
2023/01/20 07:48:03;;;;;;;43.58;18.55;;;;;;;;;;4924860;28;20042;-69
2023/01/20 07:50:31;;;;;;;42.75;19.30;;;;;;;;;;4924878;28;20066;-70
2023/01/20 07:53:00;;;;;;;41.13;18.08;;;;;;;;;;4940934;28;20038;-65
2023/01/20 07:55:27;;;;;;;41.30;18.83;;;;;;;;;;4957143;28;20049;-70
2023/01/20 07:57:53;;;;;;;46.47;18.73;;;;;;;;;;4970969;28;20038;-69
2023/01/20 08:00:19;;;;;;;36.08;16.85;;;;;;;;;;4940594;28;20042;-70
2023/01/20 08:02:45;;;;;;;40.67;17.05;;;;;;;;;;4922082;29;20501;-69
2023/01/20 08:05:11;;;;;;;43.63;17.88;;;;;;;;;;4921351;29;20046;-67
2023/01/20 08:07:36;;;;;;;41.38;18.00;;;;;;;;;;4940076;28;20486;-67
2023/01/20 08:10:02;;;;;;;45.25;17.75;;;;;;;;;;4921252;29;20050;-68
2023/01/20 08:12:30;;;;;;;36.47;16.52;;;;;;;;;;4954061;28;20038;-67
2023/01/20 08:14:57;;;;;;;37.67;17.17;;;;;;;;;;4921433;29;20085;-68
2023/01/20 08:17:23;;;;;;;42.15;16.80;;;;;;;;;;4934218;28;20507;-68
2023/01/20 08:19:49;;;;;;;40.65;17.95;;;;;;;;;;4936557;29;20039;-69
2023/01/20 08:22:15;;;;;;;43.38;17.40;;;;;;;;;;4933357;29;20043;-69
2023/01/20 08:24:40;;;;;;;41.67;17.30;;;;;;;;;;4948799;28;20038;-68
2023/01/20 08:27:06;;;;;;;37.15;17.05;;;;;;;;;;4941049;28;20054;-67
2023/01/20 08:29:32;;;;;;;39.03;17.17;;;;;;;;;;4923501;28;20039;-68
2023/01/20 08:31:58;;;;;;;36.78;17.42;;;;;;;;;;4941118;28;20469;-68
2023/01/20 08:34:27;;;;;;;35.42;17.20;;;;;;;;;;4937946;28;20046;-68
2023/01/20 08:36:55;;;;;;;37.85;16.67;;;;;;;;;;4920039;29;20035;-71
2023/01/20 08:39:21;;;;;;;41.25;17.05;;;;;;;;;;4926830;29;20125;-66
2023/01/20 08:41:47;;;;;;;42.03;16.77;;;;;;;;;;4930872;28;20034;-68
2023/01/20 08:44:13;;;;;;;35.13;16.02;;;;;;;;;;4919085;29;20031;-69
2023/01/20 08:46:39;;;;;;;38.38;17.10;;;;;;;;;;4937512;28;20069;-68
2023/01/20 08:49:11;;;;;;;34.95;16.88;;;;;;;;;;4919325;29;20478;-71
2023/01/20 08:51:38;;;;;;;37.10;16.15;;;;;;;;;;4939026;28;20058;-68
2023/01/20 08:54:04;;;;;;;35.60;16.58;;;;;;;;;;4922893;28;20039;-68
2023/01/20 08:56:29;;;;;;;39.47;17.10;;;;;;;;;;4938545;28;20039;-67
2023/01/20 08:58:58;;;;;;;35.90;15.98;;;;;;;;;;4920552;28;20055;-68
2023/01/20 09:01:29;;;;;;;44.92;17.85;;;;;;;;;;4923780;28;20436;-68
2023/01/20 09:03:55;;;;;;;40.40;16.42;;;;;;;;;;4923794;28;20049;-67
2023/01/20 09:06:21;;;;;;;37.92;16.08;;;;;;;;;;4919214;28;20096;-70
2023/01/20 09:08:50;;;;;;;34.05;16.88;;;;;;;;;;4936722;28;20039;-67
2023/01/20 09:11:18;;;;;;;40.05;16.73;;;;;;;;;;4931665;29;20027;-68
2023/01/20 09:13:44;;;;;;;33.85;16.05;;;;;;;;;;4932051;28;20041;-70
2023/01/20 09:16:11;;;;;;;36.42;17.20;;;;;;;;;;4916788;28;20042;-68
2023/01/20 09:18:37;;;;;;;36.00;17.00;;;;;;;;;;4934960;28;20043;-68
2023/01/20 09:21:05;;;;;;;43.58;18.52;;;;;;;;;;4936998;28;20031;-68
2023/01/20 09:23:32;;;;;;;41.58;18.52;;;;;;;;;;4936899;28;20038;-69
2023/01/20 09:25:58;;;;;;;46.70;16.98;;;;;;;;;;4936905;28;20475;-68
2023/01/20 09:28:24;;;;;;;38.05;17.33;;;;;;;;;;4969864;28;20035;-69
2023/01/20 09:30:55;;;;;;;39.08;16.08;;;;;;;;;;4920938;28;20121;-70
2023/01/20 09:33:21;;;;;;;33.72;15.90;;;;;;;;;;4936811;28;20043;-69
2023/01/20 09:35:53;;;;;;;35.83;14.95;;;;;;;;;;4921228;28;20038;-69
2023/01/20 09:44:03;;;;;;;39.25;16.10;;;;;;;;;;4955951;28;20042;-69
2023/01/20 09:47:18;;;;;;;31.42;14.88;;;;;;;;;;4936693;28;20516;-69
2023/01/20 09:55:41;;;;;;;32.65;13.98;;;;;;;;;;4938419;28;20118;-74
2023/01/20 09:58:07;;;;;;;35.40;15.50;;;;;;;;;;4922527;28;20401;-69
2023/01/20 10:00:35;;;;;;;34.88;15.48;;;;;;;;;;4938192;28;20121;-70
2023/01/20 10:03:35;;;;;;;35.85;15.10;;;;;;;;;;4922790;28;20034;-70
2023/01/20 10:06:05;;;;;;;34.22;15.23;;;;;;;;;;4871171;29;20497;-68
2023/01/20 10:08:44;;;;;;;33.85;14.95;;;;;;;;;;4950825;28;20109;-69
2023/01/20 10:11:15;;;;;;;32.10;14.75;;;;;;;;;;4937977;28;20166;-69
2023/01/20 10:13:46;;;;;;;39.65;16.52;;;;;;;;;;4921992;28;20046;-70
2023/01/20 10:16:11;;;;;;;;;;;;;;;;;;4938584;28;20055;-69
2023/01/20 10:18:40;;;;;;;33.65;14.75;;;;;;;;;;4921321;28;19917;-69
2023/01/20 10:21:14;;;;;;;39.83;14.50;;;;;;;;;;4927769;29;20039;-72
2023/01/20 10:23:54;;;;;;;36.33;14.60;;;;;;;;;;4933434;29;20049;-68
2023/01/20 10:26:29;;;;;;;27.52;14.23;;;;;;;;;;4945549;28;20047;-69
2023/01/20 10:28:59;;;;;;;35.92;14.63;;;;;;;;;;4952208;28;20043;-68
2023/01/20 10:31:27;;;;;;;31.98;14.23;;;;;;;;;;4940090;28;20039;-67
2023/01/20 10:34:00;;;;;;;32.20;15.00;;;;;;;;;;4942462;28;20039;-68
2023/01/20 10:36:29;;;;;;;33.40;14.23;;;;;;;;;;4939588;28;20042;-68
2023/01/20 10:39:04;;;;;;;26.20;13.90;;;;;;;;;;4914247;29;20034;-68
2023/01/20 10:41:30;;;;;;;34.17;14.13;;;;;;;;;;4939870;28;20049;-70
2023/01/20 10:43:56;;;;;;;32.13;14.07;;;;;;;;;;4921191;29;20043;-68
2023/01/20 10:46:35;;;;;;;27.77;13.15;;;;;;;;;;4919997;28;20628;-68
2023/01/20 10:49:20;;;;;;;28.90;13.60;;;;;;;;;;4925492;28;20038;-68
2023/01/20 10:51:51;;;;;;;34.55;15.02;;;;;;;;;;4926208;28;20031;-69
2023/01/20 10:54:17;;;;;;;33.70;14.27;;;;;;;;;;4958629;28;20044;-70
2023/01/20 10:56:54;;;;;;;32.95;14.30;;;;;;;;;;4925633;28;20031;-69
2023/01/20 10:59:28;;;;;;;31.42;15.05;;;;;;;;;;4926056;28;20480;-69
2023/01/20 11:01:56;;;;;;;27.27;13.75;;;;;;;;;;4907709;29;20067;-69
2023/01/20 11:04:22;;;;;;;37.03;15.02;;;;;;;;;;4956491;28;20117;-70
2023/01/20 11:06:50;;;;;;;33.53;13.30;;;;;;;;;;4921731;28;20485;-69
2023/01/20 11:09:22;;;;;;;34.00;14.07;;;;;;;;;;4924385;28;20092;-69
2023/01/20 11:11:48;;;;;;;29.27;12.82;;;;;;;;;;4937093;28;20070;-65
2023/01/20 11:14:14;;;;;;;30.33;13.05;;;;;;;;;;4920904;29;20046;-69
2023/01/20 11:16:43;;;;;;;28.88;12.90;;;;;;;;;;4931127;29;20035;-68
2023/01/20 11:19:10;;;;;;;28.10;12.20;;;;;;;;;;4930132;28;20771;-69
2023/01/20 11:21:36;;;;;;;27.67;12.65;;;;;;;;;;4920752;28;20082;-68
2023/01/20 11:24:03;;;;;;;34.67;13.40;;;;;;;;;;4952245;29;20031;-68
2023/01/20 11:26:31;;;;;;;27.35;12.48;;;;;;;;;;4948894;28;20114;-67
2023/01/20 11:29:22;;;;;;;27.50;13.23;;;;;;;;;;4966647;28;20081;-67
2023/01/20 11:31:50;;;;;;;26.55;12.65;;;;;;;;;;4921555;28;20038;-67
2023/01/20 11:34:30;;;;;;;26.38;12.05;;;;;;;;;;4940677;28;20035;-66
2023/01/20 11:37:05;;;;;;;29.00;13.38;;;;;;;;;;4924359;28;20049;-68
2023/01/20 11:39:55;;;;;;;29.15;13.35;;;;;;;;;;4940979;28;20030;-67
2023/01/20 11:42:23;;;;;;;31.52;13.57;;;;;;;;;;4939517;28;20089;-69
2023/01/20 11:44:50;;;;;;;24.50;12.85;;;;;;;;;;4935733;28;20521;-69
2023/01/20 11:47:25;;;;;;;25.67;11.93;;;;;;;;;;4956576;28;20528;-71
2023/01/20 11:50:02;;;;;;;24.65;12.73;;;;;;;;;;4940819;28;20041;-70
2023/01/20 11:52:31;;;;;;;29.77;12.30;;;;;;;;;;4920924;28;20477;-70
2023/01/20 11:55:06;;;;;;;26.42;12.18;;;;;;;;;;4972026;28;20035;-70
2023/01/20 11:57:32;;;;;;;24.75;11.57;;;;;;;;;;4939306;28;20781;-69
2023/01/20 11:59:58;;;;;;;26.33;12.65;;;;;;;;;;4922770;28;20050;-70
2023/01/20 12:02:26;;;;;;;25.48;10.48;;;;;;;;;;4922418;28;20041;-69
2023/01/20 12:04:58;;;;;;;25.05;11.77;;;;;;;;;;4920240;29;20122;-70
2023/01/20 12:07:36;;;;;;;29.85;11.73;;;;;;;;;;4937010;28;20577;-69
2023/01/20 12:10:23;;;;;;;22.92;11.13;;;;;;;;;;4955438;28;20035;-69
2023/01/20 12:12:52;;;;;;;26.45;11.45;;;;;;;;;;4938610;28;20082;-69
2023/01/20 12:15:22;;;;;;;22.15;10.93;;;;;;;;;;4933137;28;20125;-69
2023/01/20 12:17:47;;;;;;;23.88;10.60;;;;;;;;;;4922846;28;20049;-72
2023/01/20 12:20:22;;;;;;;25.48;10.93;;;;;;;;;;4919862;29;20038;-74
2023/01/20 12:22:54;;;;;;;22.42;10.48;;;;;;;;;;4912005;29;20035;-73
2023/01/20 12:25:28;;;;;;;28.95;11.02;;;;;;;;;;4943766;28;20058;-71
2023/01/20 12:28:03;;;;;;;22.15;10.55;;;;;;;;;;4914400;29;20041;-71
2023/01/20 12:30:32;;;;;;;24.13;10.27;;;;;;;;;;4919156;29;20044;-71
2023/01/20 12:32:57;;;;;;;31.13;10.73;;;;;;;;;;4921141;29;20489;-72
2023/01/20 12:35:26;;;;;;;23.25;10.40;;;;;;;;;;4934632;28;20031;-71
2023/01/20 12:37:56;;;;;;;25.00;10.18;;;;;;;;;;4916660;29;20473;-72
2023/01/20 12:40:28;;;;;;;24.88;10.73;;;;;;;;;;4966105;28;20079;-75
2023/01/20 12:43:00;;;;;;;24.15;10.85;;;;;;;;;;4918856;29;20050;-73
2023/01/20 12:45:25;;;;;;;22.38;11.13;;;;;;;;;;4930713;29;20047;-74
2023/01/20 12:48:05;;;;;;;25.63;11.23;;;;;;;;;;4913587;29;20039;-73
2023/01/20 12:50:30;;;;;;;25.73;11.18;;;;;;;;;;4926647;29;20031;-73
2023/01/20 12:53:05;;;;;;;27.45;11.77;;;;;;;;;;4914514;29;20042;-73
2023/01/20 12:55:33;;;;;;;26.55;12.35;;;;;;;;;;4954077;28;20043;-75
2023/01/20 12:58:08;;;;;;;32.08;12.00;;;;;;;;;;4936570;29;20082;-77
2023/01/20 13:00:45;;;;;;;20.83;10.93;;;;;;;;;;4938007;28;20109;-75
2023/01/20 13:06:33;;;;;;;22.60;11.13;;;;;;;;;;4941187;28;20062;-73
2023/01/20 13:09:19;;;;;;;25.35;10.50;;;;;;;;;;4929403;28;20043;-77
2023/01/20 13:11:59;;;;;;;21.95;10.98;;;;;;;;;;4930572;28;20138;-73
2023/01/20 13:14:37;;;;;;;21.83;10.65;;;;;;;;;;4971546;28;20038;-73
2023/01/20 13:17:14;;;;;;;22.88;11.10;;;;;;;;;;4974589;28;20034;-73
2023/01/20 13:19:40;;;;;;;23.35;9.85;;;;;;;;;;4942310;28;20117;-73
2023/01/20 13:22:10;;;;;;;19.40;10.00;;;;;;;;;;4939308;28;20037;-77
2023/01/20 13:24:37;;;;;;;19.65;10.60;;;;;;;;;;4940094;28;20046;-73
2023/01/20 13:27:02;;;;;;;29.08;11.82;;;;;;;;;;4958459;28;20061;-73
2023/01/20 13:30:03;;;;;;;24.63;11.20;;;;;;;;;;4958307;28;20696;-72
2023/01/20 13:32:33;;;;;;;26.55;11.18;;;;;;;;;;4919220;28;20043;-73
2023/01/20 13:35:00;;;;;;;21.95;10.25;;;;;;;;;;4958082;28;20042;-73
2023/01/20 13:37:29;;;;;;;25.13;10.85;;;;;;;;;;4954215;28;20465;-74
2023/01/20 13:39:56;;;;;;;28.52;10.57;;;;;;;;;;4934446;29;20038;-72
2023/01/20 13:42:40;;;;;;;25.20;11.68;;;;;;;;;;4947894;29;20036;-73
2023/01/20 13:45:15;;;;;;;23.52;11.25;;;;;;;;;;4931918;28;20532;-71
2023/01/20 13:47:59;;;;;;;22.20;10.75;;;;;;;;;;4943845;28;20110;-71
2023/01/20 13:50:28;;;;;;;23.40;10.93;;;;;;;;;;4938206;28;20089;-71
2023/01/20 13:52:57;;;;;;;21.90;11.00;;;;;;;;;;4928771;28;20097;-70
2023/01/20 13:55:58;;;;;;;24.95;10.98;;;;;;;;;;4955775;28;20129;-72
2023/01/20 13:58:27;;;;;;;23.20;11.07;;;;;;;;;;4990143;28;20094;-70
2023/01/20 14:00:58;;;;;;;20.20;10.23;;;;;;;;;;4974076;28;20081;-71
2023/01/20 14:03:29;;;;;;;24.83;11.40;;;;;;;;;;4958238;28;20070;-72
2023/01/20 14:05:57;;;;;;;30.70;11.43;;;;;;;;;;4955633;28;20509;-72
2023/01/20 14:08:25;;;;;;;24.45;11.55;;;;;;;;;;4974783;28;20038;-73
2023/01/20 14:10:50;;;;;;;23.75;11.38;;;;;;;;;;4927055;28;20473;-74
2023/01/20 14:13:23;;;;;;;23.23;11.23;;;;;;;;;;4940610;28;20038;-71
2023/01/20 14:15:53;;;;;;;24.83;11.45;;;;;;;;;;4938417;29;20053;-73
2023/01/20 14:18:20;;;;;;;27.65;11.38;;;;;;;;;;4950446;28;20123;-71
2023/01/20 14:20:56;;;;;;;28.47;12.27;;;;;;;;;;4940941;28;20039;-72
2023/01/20 14:23:26;;;;;;;26.15;10.88;;;;;;;;;;4964655;28;20282;-71
2023/01/20 14:25:56;;;;;;;25.98;11.05;;;;;;;;;;4922144;29;20082;-73
2023/01/20 14:28:23;;;;;;;30.63;11.35;;;;;;;;;;4938198;28;20033;-75
2023/01/20 14:31:03;;;;;;;27.88;11.98;;;;;;;;;;4949165;28;20047;-73
2023/01/20 14:33:29;;;;;;;32.35;12.23;;;;;;;;;;4937012;28;20035;-70
2023/01/20 14:35:55;;;;;;;28.25;12.38;;;;;;;;;;4919247;28;20043;-71
2023/01/20 14:38:21;;;;;;;23.17;11.13;;;;;;;;;;4920683;28;20100;-69
2023/01/20 14:40:48;;;;;;;25.80;11.55;;;;;;;;;;4922121;28;20047;-75
2023/01/20 14:43:19;;;;;;;29.40;11.38;;;;;;;;;;4943397;28;20069;-75
2023/01/20 14:45:46;;;;;;;22.95;10.95;;;;;;;;;;4938098;29;20050;-73